Scf Explorer — WDE2863 — position and weather

sailwx.info

Track history (hours):
 
Tides and Currents Weather Stations Pressure Air Temp Water Temp Dewpoint Dewpoint Depression Visibility Wind Speed Wind Dir Waves Ship Positions

Scf Explorer

Owner: SCF Waxler Marine LLC, St Rose, LA. More information available from US FCC via Universal Licensing System and Coast Guard Vessel Documentation Center.

Last reported at 2015-Feb-25 23:26 UTC. Time now 2015-Mar-06 12:41 UTC.
Position N 29°23' W 094°53'.
Warning: this ship's position is 8 days out of date.

Length 35 m; draft 2.3 m.

Type: Ship (hazmat cat B). MMSI: 367330620.

Date/timePositionNaut miles runAvg speedWind from/ knotsBaromVisibWave heightAir tempDewpointWater temp
2015-Feb-25 23:26N 29°23' W 094°53'2 2.1
2015-Feb-25 22:29N 29°22' W 094°55'2 0.1
2015-Feb-24 21:06N 29°23' W 094°53'  
2015-Feb-16 13:33N 29°43' W 091°32'6 5.9
2015-Feb-16 12:33N 29°40' W 091°26'6 6.5
2015-Feb-16 11:33N 29°38' W 091°19'5 5.4
2015-Feb-16 10:33N 29°41' W 091°13'3 2.7
2015-Feb-16 09:33N 29°41' W 091°10'3 3.3
2015-Feb-16 08:33N 29°39' W 091°07'4 4.4
2015-Feb-16 07:33N 29°37' W 091°02'5 4.9
2015-Feb-16 06:33N 29°35' W 090°58'6 6.0
2015-Feb-16 05:32N 29°32' W 090°51'5 5.1
2015-Feb-16 04:33N 29°32' W 090°46'4 3.7
2015-Feb-16 03:33N 29°35' W 090°43'  
Track history (hours):
 
Tides and Currents Weather Stations Pressure Air Temp Water Temp Dewpoint Dewpoint Depression Visibility Wind Speed Wind Dir Waves Ship Positions

Scf Explorer

Owner: SCF Waxler Marine LLC, St Rose, LA. More information available from US FCC via Universal Licensing System and Coast Guard Vessel Documentation Center.

Last reported at 2015-Feb-25 23:26 UTC. Time now 2015-Mar-06 12:41 UTC.
Position N 29°23' W 094°53'.
Warning: this ship's position is 8 days out of date.

Length 35 m; draft 2.3 m.

Type: Ship (hazmat cat B). MMSI: 367330620.

Date/timePositionNaut miles runAvg speedWind from/ knotsBaromVisibWave heightAir tempDewpointWater temp
2015-Feb-25 23:26N 29°23' W 094°53'2 2.1
2015-Feb-25 22:29N 29°22' W 094°55'2 0.1
2015-Feb-24 21:06N 29°23' W 094°53'  
2015-Feb-16 13:33N 29°43' W 091°32'6 5.9
2015-Feb-16 12:33N 29°40' W 091°26'6 6.5
2015-Feb-16 11:33N 29°38' W 091°19'5 5.4
2015-Feb-16 10:33N 29°41' W 091°13'3 2.7
2015-Feb-16 09:33N 29°41' W 091°10'3 3.3
2015-Feb-16 08:33N 29°39' W 091°07'4 4.4
2015-Feb-16 07:33N 29°37' W 091°02'5 4.9
2015-Feb-16 06:33N 29°35' W 090°58'6 6.0
2015-Feb-16 05:32N 29°32' W 090°51'5 5.1
2015-Feb-16 04:33N 29°32' W 090°46'4 3.7
2015-Feb-16 03:33N 29°35' W 090°43'  

Dump ship's entire track history